createdAt,value
2019-04-25T00:00:47.616Z,20.66
2019-04-25T00:03:22.293Z,20.65
2019-04-25T00:05:53.446Z,20.69
2019-04-25T00:08:24.640Z,20.75
2019-04-25T00:10:55.561Z,20.24
2019-04-25T00:13:27.231Z,20.17
2019-04-25T00:15:58.182Z,20.04
2019-04-25T00:18:29.024Z,20.14
2019-04-25T00:21:01.908Z,20.43
2019-04-25T00:23:34.149Z,20.52
2019-04-25T00:26:07.167Z,20.52
2019-04-25T00:28:38.317Z,20.20
2019-04-25T00:31:09.495Z,19.96
2019-04-25T00:33:41.360Z,19.53
2019-04-25T00:36:13.514Z,19.94
2019-04-25T00:38:46.526Z,20.21
2019-04-25T00:41:17.728Z,19.97
2019-04-25T00:43:49.419Z,20.02
2019-04-25T00:46:22.442Z,20.14
2019-04-25T00:48:53.656Z,20.15
2019-04-25T00:51:26.188Z,20.14
2019-04-25T00:53:57.234Z,20.03
2019-04-25T00:56:28.215Z,20.07
2019-04-25T00:59:02.005Z,19.80
2019-04-25T01:01:35.038Z,19.93
2019-04-25T01:04:06.103Z,19.87
2019-04-25T01:06:37.156Z,19.85
2019-04-25T01:09:12.363Z,19.67
2019-04-25T01:11:44.246Z,19.76
2019-04-25T01:14:15.438Z,19.79
2019-04-25T01:16:46.529Z,19.76
2019-04-25T01:19:17.753Z,19.57
2019-04-25T01:21:49.125Z,19.60
2019-04-25T01:24:20.180Z,19.66
2019-04-25T01:26:51.673Z,19.62
2019-04-25T01:29:23.477Z,19.50
2019-04-25T01:31:55.278Z,19.58
2019-04-25T01:34:31.090Z,19.59
2019-04-25T01:37:15.897Z,19.56
2019-04-25T01:39:51.640Z,19.62
2019-04-25T01:42:33.886Z,19.54
2019-04-25T01:45:06.536Z,19.41
2019-04-25T01:47:37.597Z,19.48
2019-04-25T01:50:08.854Z,19.50
2019-04-25T01:52:40.014Z,19.55
2019-04-25T01:55:11.264Z,19.49
2019-04-25T01:57:45.070Z,19.42
2019-04-25T02:00:17.321Z,19.33
2019-04-25T02:02:48.666Z,19.28
2019-04-25T02:05:19.744Z,19.35
2019-04-25T02:07:51.498Z,19.31
2019-04-25T02:10:23.435Z,19.30
2019-04-25T02:13:14.289Z,19.27
2019-04-25T02:15:45.362Z,19.11
2019-04-25T02:18:16.408Z,19.06
2019-04-25T02:20:47.261Z,19.12
2019-04-25T02:23:18.090Z,19.11
2019-04-25T02:25:49.166Z,19.07
2019-04-25T02:28:20.052Z,18.88
2019-04-25T02:30:53.668Z,18.95
2019-04-25T02:33:25.505Z,18.99
2019-04-25T02:35:59.350Z,18.94
2019-04-25T02:38:29.539Z,18.92
2019-04-25T02:41:02.336Z,18.89
2019-04-25T02:43:35.067Z,18.89
2019-04-25T02:46:15.143Z,18.92
2019-04-25T02:49:02.469Z,18.93
2019-04-25T02:51:35.140Z,18.87
2019-04-25T02:54:08.101Z,18.81
2019-04-25T02:56:39.283Z,18.78
2019-04-25T02:59:10.231Z,18.60
2019-04-25T03:01:43.889Z,18.60
2019-04-25T03:04:14.689Z,18.62
2019-04-25T03:06:45.727Z,18.66
2019-04-25T03:09:16.800Z,18.69
2019-04-25T03:11:47.966Z,18.68
2019-04-25T03:14:19.083Z,18.43
2019-04-25T03:16:50.155Z,18.31
2019-04-25T03:19:39.494Z,18.47
2019-04-25T03:22:17.996Z,18.53
2019-04-25T03:24:49.026Z,18.61
2019-04-25T03:27:20.226Z,18.61
2019-04-25T03:29:51.184Z,18.55
2019-04-25T03:32:25.743Z,18.26
2019-04-25T03:34:55.300Z,18.21
2019-04-25T03:37:26.420Z,18.18
2019-04-25T03:39:57.455Z,18.41
2019-04-25T03:42:28.490Z,18.42
2019-04-25T03:44:59.452Z,18.49
2019-04-25T03:47:30.522Z,18.42
2019-04-25T03:50:05.738Z,18.41
2019-04-25T03:52:36.088Z,18.45
2019-04-25T03:55:07.695Z,18.13
2019-04-25T03:57:39.611Z,18.15
2019-04-25T04:00:10.875Z,18.18
2019-04-25T04:02:41.923Z,18.26
2019-04-25T04:05:13.913Z,18.27
2019-04-25T04:07:45.842Z,18.23
2019-04-25T04:10:16.927Z,18.24
2019-04-25T04:12:47.841Z,18.22
2019-04-25T04:15:19.401Z,17.98
2019-04-25T04:18:00.895Z,18.04
2019-04-25T04:20:36.397Z,18.10
2019-04-25T04:23:15.428Z,18.15
2019-04-25T04:25:46.649Z,18.10
2019-04-25T04:28:17.826Z,18.06
2019-04-25T04:30:48.776Z,17.91
2019-04-25T04:33:29.819Z,17.73
2019-04-25T04:35:54.326Z,18.26
2019-04-25T04:38:25.429Z,18.76
2019-04-25T04:40:56.405Z,19.03
2019-04-25T04:43:27.309Z,19.30
2019-04-25T04:45:58.294Z,19.54
2019-04-25T04:48:29.257Z,19.73
2019-04-25T04:51:00.206Z,19.87
2019-04-25T04:53:31.139Z,19.94
2019-04-25T04:56:02.105Z,20.07
2019-04-25T04:58:34.292Z,20.17
2019-04-25T05:01:05.345Z,20.26
2019-04-25T05:03:38.094Z,20.30
2019-04-25T05:06:17.363Z,20.36
2019-04-25T05:08:54.754Z,20.41
2019-04-25T05:11:25.704Z,20.50
2019-04-25T05:13:56.569Z,20.55
2019-04-25T05:16:27.420Z,20.60
2019-04-25T05:18:58.512Z,20.65
2019-04-25T05:21:29.458Z,20.71
2019-04-25T05:24:00.458Z,20.75
2019-04-25T05:26:31.441Z,20.79
2019-04-25T05:29:04.342Z,20.84
2019-04-25T05:31:39.869Z,20.89
2019-04-25T05:34:10.945Z,20.89
2019-04-25T05:36:41.784Z,20.94
2019-04-25T05:39:15.282Z,20.99
2019-04-25T05:41:54.018Z,21.02
2019-04-25T05:44:27.332Z,21.06
2019-04-25T05:46:58.013Z,21.08
2019-04-25T05:49:28.961Z,21.12
2019-04-25T05:51:59.933Z,21.15
2019-04-25T05:54:30.994Z,21.19
2019-04-25T05:57:03.606Z,21.22
2019-04-25T05:59:34.615Z,21.23
2019-04-25T06:02:05.721Z,21.27
2019-04-25T06:04:36.652Z,21.26
2019-04-25T06:07:07.632Z,21.28
2019-04-25T06:09:40.457Z,21.31
2019-04-25T06:12:13.516Z,21.35
2019-04-25T06:14:44.374Z,21.38
2019-04-25T06:17:34.362Z,21.39
2019-04-25T06:20:08.199Z,21.43
2019-04-25T06:22:57.249Z,21.48
2019-04-25T06:25:34.158Z,21.51
2019-04-25T06:28:06.739Z,21.58
2019-04-25T06:30:37.690Z,21.62
2019-04-25T06:33:08.534Z,21.68
2019-04-25T06:35:39.607Z,21.69
2019-04-25T06:38:10.671Z,21.76
2019-04-25T06:40:41.742Z,21.79
2019-04-25T06:43:13.443Z,21.83
2019-04-25T06:45:50.253Z,21.89
2019-04-25T06:48:25.032Z,21.93
2019-04-25T06:50:56.201Z,21.93
2019-04-25T06:53:27.052Z,21.95
2019-04-25T06:55:58.013Z,22.01
2019-04-25T06:58:29.046Z,22.01
2019-04-25T07:01:01.071Z,22.02
2019-04-25T07:03:32.198Z,22.07
2019-04-25T07:06:03.486Z,22.12
2019-04-25T07:08:35.320Z,22.19
2019-04-25T07:11:06.621Z,22.22
2019-04-25T07:13:38.824Z,22.28
2019-04-25T07:16:09.861Z,22.29
2019-04-25T07:18:40.724Z,22.32
2019-04-25T07:21:11.780Z,22.36
2019-04-25T07:23:43.518Z,22.39
2019-04-25T07:26:17.639Z,22.39
2019-04-25T07:28:56.420Z,22.43
2019-04-25T07:31:38.198Z,22.43
2019-04-25T07:34:11.222Z,22.48
2019-04-25T07:36:42.309Z,22.57
2019-04-25T07:39:13.587Z,22.51
2019-04-25T07:41:44.505Z,22.56
2019-04-25T07:44:15.638Z,22.55
2019-04-25T07:46:46.624Z,22.54
2019-04-25T07:49:17.570Z,22.54
2019-04-25T07:51:48.511Z,22.58
2019-04-25T07:54:19.606Z,22.58
2019-04-25T07:56:50.696Z,22.63
2019-04-25T07:59:21.541Z,22.63
2019-04-25T08:01:53.560Z,22.66
2019-04-25T08:04:24.750Z,22.68
2019-04-25T08:06:56.006Z,22.70
2019-04-25T08:09:27.504Z,22.70
2019-04-25T08:11:59.212Z,22.75
2019-04-25T08:14:33.888Z,22.79
2019-04-25T08:17:06.952Z,22.85
2019-04-25T08:19:38.021Z,22.74
2019-04-25T08:22:09.773Z,22.83
2019-04-25T08:24:41.222Z,22.78
2019-04-25T08:27:13.399Z,22.83
2019-04-25T08:29:45.549Z,22.79
2019-04-25T08:32:17.439Z,22.81
2019-04-25T08:34:48.410Z,22.80
2019-04-25T08:37:21.154Z,22.81
2019-04-25T08:39:53.559Z,22.81
2019-04-25T08:42:24.935Z,22.80
2019-04-25T08:44:56.003Z,22.80
2019-04-25T08:47:27.085Z,22.88
2019-04-25T08:50:00.066Z,22.90
2019-04-25T08:52:31.835Z,22.89
2019-04-25T08:55:07.004Z,22.87
2019-04-25T08:57:48.576Z,22.86
2019-04-25T09:00:31.698Z,22.85
2019-04-25T09:03:05.967Z,22.88
2019-04-25T09:05:39.364Z,22.84
2019-04-25T09:08:11.384Z,22.81
2019-04-25T09:10:43.703Z,22.87
2019-04-25T09:13:15.396Z,22.94
2019-04-25T09:15:46.485Z,22.97
2019-04-25T09:18:17.438Z,22.89
2019-04-25T09:20:48.397Z,22.88
2019-04-25T09:23:19.467Z,22.84
2019-04-25T09:25:50.505Z,22.81
2019-04-25T09:28:21.616Z,22.97
2019-04-25T09:30:53.988Z,22.96
2019-04-25T09:33:25.142Z,22.87
2019-04-25T09:35:56.206Z,22.90
2019-04-25T09:38:27.353Z,22.90
2019-04-25T09:40:58.304Z,22.94
2019-04-25T09:43:29.309Z,22.93
2019-04-25T09:46:08.339Z,22.92
2019-04-25T09:48:44.652Z,22.94
2019-04-25T09:51:18.370Z,22.92
2019-04-25T09:53:51.557Z,22.96
2019-04-25T09:56:24.392Z,23.00
2019-04-25T09:58:57.149Z,23.05
2019-04-25T10:01:28.479Z,23.05
2019-04-25T10:04:01.852Z,23.07
2019-04-25T10:06:33.310Z,22.99
2019-04-25T10:09:06.555Z,23.03
2019-04-25T10:11:38.358Z,23.05
2019-04-25T10:14:32.629Z,23.07
2019-04-25T10:17:03.880Z,23.13
2019-04-25T10:19:34.985Z,23.07
2019-04-25T10:22:06.042Z,23.14
2019-04-25T10:24:38.455Z,23.14
2019-04-25T10:27:09.592Z,23.17
2019-04-25T10:29:47.334Z,23.18
2019-04-25T10:32:15.072Z,23.08
2019-04-25T10:34:46.242Z,23.21
2019-04-25T10:37:17.471Z,23.52
2019-04-25T10:39:48.950Z,23.58
2019-04-25T10:42:20.087Z,23.65
2019-04-25T10:44:51.074Z,23.69
2019-04-25T10:47:22.071Z,23.77
2019-04-25T10:49:53.675Z,23.80
2019-04-25T10:52:26.193Z,23.65
2019-04-25T10:54:57.277Z,23.53
2019-04-25T10:57:28.652Z,23.50
2019-04-25T11:00:06.329Z,23.50
2019-04-25T11:02:33.918Z,23.53
2019-04-25T11:05:07.732Z,23.45
2019-04-25T11:07:39.756Z,23.47
2019-04-25T11:10:14.030Z,23.45
2019-04-25T11:12:45.517Z,23.46
2019-04-25T11:15:16.570Z,23.45
2019-04-25T11:17:47.981Z,23.48
2019-04-25T11:20:30.049Z,23.58
2019-04-25T11:23:01.117Z,23.62
2019-04-25T11:25:32.198Z,23.60
2019-04-25T11:28:07.969Z,23.70
2019-04-25T11:30:39.669Z,23.70
2019-04-25T11:33:10.712Z,23.70
2019-04-25T11:35:41.766Z,23.72
2019-04-25T11:38:20.241Z,23.76
2019-04-25T11:40:55.124Z,23.76
2019-04-25T11:43:26.281Z,24.04
2019-04-25T11:45:57.377Z,24.39
2019-04-25T11:48:28.401Z,24.76
2019-04-25T11:53:55.796Z,27.68
2019-04-25T11:56:26.866Z,26.90
2019-04-25T11:58:57.947Z,26.92
2019-04-25T12:01:29.510Z,27.18
2019-04-25T12:14:27.793Z,29.95
2019-04-25T12:16:58.645Z,30.45
2019-04-25T12:19:35.651Z,31.33
2019-04-25T12:22:04.060Z,32.45
2019-04-25T12:24:35.090Z,33.14
2019-04-25T12:27:06.085Z,33.48
2019-04-25T12:29:38.811Z,33.49
2019-04-25T12:32:10.180Z,33.75
2019-04-25T12:34:41.134Z,33.94
2019-04-25T12:37:12.181Z,34.08
2019-04-25T12:39:43.036Z,34.39
2019-04-25T12:42:14.455Z,34.01
2019-04-25T12:44:59.395Z,33.78
2019-04-25T12:47:34.957Z,33.48
2019-04-25T12:50:06.329Z,33.39
2019-04-25T12:52:37.265Z,33.07
2019-04-25T12:55:10.340Z,32.89
2019-04-25T12:57:41.390Z,33.14
2019-04-25T13:00:14.665Z,33.43
2019-04-25T13:02:45.590Z,33.58
2019-04-25T13:05:16.807Z,33.73
2019-04-25T13:07:47.938Z,33.45
2019-04-25T13:10:18.909Z,33.20
2019-04-25T13:12:49.974Z,33.28
2019-04-25T13:15:21.365Z,33.56
2019-04-25T13:17:53.646Z,33.85
2019-04-25T13:20:24.722Z,34.34
2019-04-25T13:22:55.910Z,34.45
2019-04-25T13:25:28.769Z,34.28
2019-04-25T13:28:08.431Z,34.34
2019-04-25T13:30:47.110Z,34.46
2019-04-25T13:33:25.718Z,34.91
2019-04-25T13:35:58.693Z,35.04
2019-04-25T13:38:29.683Z,35.08
2019-04-25T13:41:01.607Z,35.04
2019-04-25T13:43:32.991Z,34.94
2019-04-25T13:46:03.993Z,34.61
2019-04-25T13:48:35.672Z,34.40
2019-04-25T13:51:06.768Z,34.21
2019-04-25T13:53:37.708Z,34.37
2019-04-25T13:56:09.291Z,34.16
2019-04-25T13:58:40.376Z,33.99
2019-04-25T14:01:17.055Z,34.01
2019-04-25T14:03:46.345Z,34.00
2019-04-25T14:06:17.856Z,33.98
2019-04-25T14:08:48.822Z,33.76
2019-04-25T14:11:20.715Z,33.54
2019-04-25T14:13:52.569Z,33.40
2019-04-25T14:16:31.112Z,33.35
2019-04-25T14:19:04.078Z,33.47
2019-04-25T14:21:35.044Z,33.55
2019-04-25T14:24:06.021Z,33.62
2019-04-25T14:26:37.068Z,33.24
2019-04-25T14:29:08.069Z,33.16
2019-04-25T14:31:45.157Z,32.98
2019-04-25T14:34:13.289Z,32.80
2019-04-25T14:36:44.457Z,32.55
2019-04-25T14:39:16.449Z,32.07
2019-04-25T14:41:47.689Z,31.64
2019-04-25T14:44:18.781Z,31.28
2019-04-25T14:46:49.740Z,31.09
2019-04-25T14:49:21.635Z,30.95
2019-04-25T14:51:53.596Z,31.35
2019-04-25T14:54:32.661Z,31.35
2019-04-25T14:57:16.493Z,31.79
2019-04-25T14:59:47.567Z,32.34
2019-04-25T15:02:19.039Z,32.55
2019-04-25T15:04:50.076Z,32.56
2019-04-25T15:07:21.033Z,32.38
2019-04-25T15:09:52.065Z,32.41
2019-04-25T15:12:23.562Z,32.38
2019-04-25T15:14:54.600Z,32.33
2019-04-25T15:17:26.415Z,32.14
2019-04-25T15:19:57.425Z,32.02
2019-04-25T15:22:28.390Z,32.18
2019-04-25T15:24:59.325Z,32.17
2019-04-25T15:27:30.178Z,32.23
2019-04-25T15:30:02.192Z,31.99
2019-04-25T15:32:34.809Z,32.10
2019-04-25T15:35:07.797Z,32.29
2019-04-25T15:37:49.530Z,32.30
2019-04-25T15:40:34.457Z,32.25
2019-04-25T15:43:14.029Z,31.73
2019-04-25T15:45:46.877Z,31.73
2019-04-25T15:48:17.853Z,31.57
2019-04-25T15:50:49.037Z,31.64
2019-04-25T15:53:20.132Z,31.24
2019-04-25T15:55:52.072Z,31.22
2019-04-25T15:58:23.068Z,31.30
2019-04-25T16:00:54.216Z,31.30
2019-04-25T16:03:25.274Z,31.16
2019-04-25T16:05:56.229Z,31.01
2019-04-25T16:08:27.639Z,31.06
2019-04-25T16:10:58.615Z,31.22
2019-04-25T16:13:30.183Z,31.33
2019-04-25T16:16:01.116Z,31.29
2019-04-25T16:18:33.100Z,31.35
2019-04-25T16:21:04.334Z,31.13
2019-04-25T16:23:36.378Z,30.83
2019-04-25T16:26:07.349Z,30.56
2019-04-25T16:28:38.434Z,30.08
2019-04-25T16:31:11.412Z,29.65
2019-04-25T16:33:42.515Z,29.28
2019-04-25T16:36:13.587Z,28.90
2019-04-25T16:38:44.557Z,28.65
2019-04-25T16:41:15.718Z,28.39
2019-04-25T16:43:48.678Z,28.26
2019-04-25T16:46:20.423Z,28.08
2019-04-25T16:48:51.437Z,27.96
2019-04-25T16:51:22.697Z,27.78
2019-04-25T16:53:53.672Z,27.76
2019-04-25T16:56:24.612Z,27.69
2019-04-25T16:58:55.605Z,27.55
2019-04-25T17:01:26.748Z,27.51
2019-04-25T17:03:57.764Z,27.43
2019-04-25T17:06:30.116Z,27.37
2019-04-25T17:09:01.411Z,27.24
2019-04-25T17:11:32.344Z,27.15
2019-04-25T17:14:11.136Z,27.09
2019-04-25T17:16:53.369Z,26.94
2019-04-25T17:19:26.530Z,26.86
2019-04-25T17:21:57.459Z,26.76
2019-04-25T17:24:28.458Z,26.64
2019-04-25T17:27:01.057Z,26.56
2019-04-25T17:29:32.534Z,26.46
2019-04-25T17:32:23.770Z,26.32
2019-04-25T17:34:59.334Z,26.18
2019-04-25T17:37:50.017Z,25.99
2019-04-25T17:40:26.150Z,25.84
2019-04-25T17:42:57.314Z,25.67
2019-04-25T17:45:30.297Z,25.54
2019-04-25T17:48:01.256Z,25.43
2019-04-25T17:50:32.946Z,25.35
2019-04-25T17:53:04.244Z,25.25
2019-04-25T17:55:35.652Z,25.20
2019-04-25T17:58:06.701Z,25.11
2019-04-25T18:00:39.942Z,25.01
2019-04-25T18:03:11.365Z,24.91
2019-04-25T18:05:42.404Z,24.79
2019-04-25T18:08:13.374Z,24.68
2019-04-25T18:10:44.353Z,24.58
2019-04-25T18:13:15.311Z,24.47
2019-04-25T18:15:48.297Z,24.36
2019-04-25T18:18:24.072Z,24.26
2019-04-25T18:20:55.430Z,24.15
2019-04-25T18:23:46.544Z,24.04
2019-04-25T18:26:22.083Z,23.92
2019-04-25T18:28:54.934Z,23.79
2019-04-25T18:31:26.030Z,23.69
2019-04-25T18:33:58.915Z,23.59
2019-04-25T18:36:40.478Z,23.49
2019-04-25T18:39:28.367Z,23.40
2019-04-25T18:42:12.894Z,23.29
2019-04-25T18:44:44.130Z,23.19
2019-04-25T18:47:15.303Z,23.09
2019-04-25T18:49:46.757Z,22.98
2019-04-25T18:52:37.205Z,22.90
2019-04-25T18:55:19.393Z,22.79
2019-04-25T18:58:03.929Z,22.72
2019-04-25T19:00:39.396Z,22.64
2019-04-25T19:03:22.207Z,22.56
2019-04-25T19:05:52.640Z,22.48
2019-04-25T19:08:23.625Z,22.42
2019-04-25T19:10:54.739Z,22.35
2019-04-25T19:13:25.980Z,22.29
2019-04-25T19:15:57.193Z,22.21
2019-04-25T19:18:28.208Z,22.15
2019-04-25T19:20:59.253Z,22.10
2019-04-25T19:23:30.305Z,22.08
2019-04-25T19:26:01.280Z,22.05
2019-04-25T19:28:32.325Z,22.01
2019-04-25T19:31:03.520Z,21.95
2019-04-25T19:33:35.775Z,21.88
2019-04-25T19:36:07.235Z,21.84
2019-04-25T19:38:38.300Z,21.80
2019-04-25T19:41:16.818Z,21.76
2019-04-25T19:43:59.192Z,21.73
2019-04-25T19:46:38.113Z,21.67
2019-04-25T19:49:09.188Z,21.59
2019-04-25T19:51:41.665Z,21.54
2019-04-25T19:54:12.799Z,21.48
2019-04-25T19:56:43.929Z,21.45
2019-04-25T19:59:14.939Z,21.41
2019-04-25T20:01:46.393Z,21.36
2019-04-25T20:04:25.154Z,21.31
2019-04-25T20:07:14.315Z,21.26
2019-04-25T20:10:05.030Z,21.19
2019-04-25T20:12:40.801Z,21.11
2019-04-25T20:15:12.733Z,21.01
2019-04-25T20:17:44.820Z,20.96
2019-04-25T20:20:16.677Z,20.94
2019-04-25T20:22:48.156Z,20.94
2019-04-25T20:25:19.184Z,20.91
2019-04-25T20:27:50.792Z,20.90
2019-04-25T20:30:23.512Z,20.84
2019-04-25T20:32:55.671Z,20.82
2019-04-25T20:35:26.770Z,20.80
2019-04-25T20:37:57.954Z,20.77
2019-04-25T20:40:28.984Z,20.71
2019-04-25T20:43:00.058Z,20.68
2019-04-25T20:45:30.916Z,20.65
2019-04-25T20:48:02.011Z,20.55
2019-04-25T20:50:33.054Z,20.48
2019-04-25T20:53:03.999Z,20.41
2019-04-25T20:55:34.949Z,20.30
2019-04-25T20:58:05.914Z,20.24
2019-04-25T21:00:43.709Z,20.19
2019-04-25T21:03:14.658Z,20.15
2019-04-25T21:05:46.415Z,20.05
2019-04-25T21:08:17.742Z,20.02
2019-04-25T21:10:50.458Z,19.92
2019-04-25T21:13:23.489Z,19.84
2019-04-25T21:15:56.414Z,19.70
2019-04-25T21:18:45.581Z,19.56
2019-04-25T21:21:16.578Z,19.45
2019-04-25T21:23:47.580Z,19.31
2019-04-25T21:26:18.499Z,19.25
2019-04-25T21:28:50.859Z,19.19
2019-04-25T21:31:22.173Z,19.16
2019-04-25T21:33:53.148Z,19.08
2019-04-25T21:36:24.529Z,19.04
2019-04-25T21:38:55.883Z,19.01
2019-04-25T21:41:29.196Z,18.93
2019-04-25T21:44:02.306Z,18.91
2019-04-25T21:46:35.082Z,18.88
2019-04-25T21:49:06.604Z,18.84
2019-04-25T21:51:37.694Z,18.77
2019-04-25T21:54:08.642Z,18.68
2019-04-25T21:56:40.012Z,18.61
2019-04-25T21:59:11.243Z,18.56
2019-04-25T22:01:43.921Z,18.51
2019-04-25T22:04:14.966Z,18.45
2019-04-25T22:06:46.446Z,18.41
2019-04-25T22:09:19.189Z,18.40
2019-04-25T22:11:50.657Z,18.37
2019-04-25T22:14:21.784Z,18.28
2019-04-25T22:16:53.264Z,18.26
2019-04-25T22:19:24.713Z,18.22
2019-04-25T22:21:56.447Z,18.17
2019-04-25T22:24:28.456Z,18.12
2019-04-25T22:27:01.290Z,18.09
2019-04-25T22:29:34.280Z,18.06
2019-04-25T22:32:13.308Z,17.99
2019-04-25T22:34:52.569Z,17.95
2019-04-25T22:37:22.187Z,17.88
2019-04-25T22:39:53.369Z,17.85
2019-04-25T22:42:24.449Z,17.83
2019-04-25T22:44:55.409Z,17.84
2019-04-25T22:47:26.295Z,17.86
2019-04-25T22:49:57.250Z,17.84
2019-04-25T22:52:28.529Z,17.81
2019-04-25T22:54:59.885Z,17.77
2019-04-25T22:57:31.852Z,17.69
2019-04-25T23:00:05.074Z,17.67
2019-04-25T23:02:47.030Z,17.62
2019-04-25T23:05:22.765Z,17.58
2019-04-25T23:07:53.753Z,17.51
2019-04-25T23:10:25.113Z,17.47
2019-04-25T23:12:56.139Z,17.48
2019-04-25T23:15:27.073Z,17.46
2019-04-25T23:17:58.449Z,17.44
2019-04-25T23:20:29.411Z,17.42
2019-04-25T23:23:00.492Z,17.38
2019-04-25T23:25:33.374Z,17.35
2019-04-25T23:28:06.403Z,17.33
2019-04-25T23:30:40.122Z,17.29
2019-04-25T23:33:11.092Z,17.23
2019-04-25T23:35:44.108Z,17.18
2019-04-25T23:38:16.080Z,17.11
2019-04-25T23:40:47.044Z,17.06
2019-04-25T23:43:18.462Z,17.00
2019-04-25T23:45:49.419Z,16.97
2019-04-25T23:48:20.805Z,16.95
2019-04-25T23:50:53.632Z,16.70
2019-04-25T23:53:24.640Z,16.55
2019-04-25T23:55:55.728Z,16.43
2019-04-25T23:58:26.781Z,16.31
